sensor_id;sensor_type;location;lat;lon;timestamp;temperature;humidity
52979;DHT22;63430;53.186;6.598;2023-08-01T00:00:07;16.50;99.90
52979;DHT22;63430;53.186;6.598;2023-08-01T00:02:13;16.50;99.90
52979;DHT22;63430;53.186;6.598;2023-08-01T00:04:16;16.50;99.90
52979;DHT22;63430;53.186;6.598;2023-08-01T00:06:18;16.50;99.90
52979;DHT22;63430;53.186;6.598;2023-08-01T00:08:22;16.50;99.90
52979;DHT22;63430;53.186;6.598;2023-08-01T00:10:24;16.50;99.90
52979;DHT22;63430;53.186;6.598;2023-08-01T00:12:29;16.50;99.90
52979;DHT22;63430;53.186;6.598;2023-08-01T00:14:32;16.50;99.90
52979;DHT22;63430;53.186;6.598;2023-08-01T00:16:35;16.50;99.90
52979;DHT22;63430;53.186;6.598;2023-08-01T00:18:37;16.50;99.90
52979;DHT22;63430;53.186;6.598;2023-08-01T00:20:40;16.40;99.90
52979;DHT22;63430;53.186;6.598;2023-08-01T00:22:43;16.40;99.90
52979;DHT22;63430;53.186;6.598;2023-08-01T00:24:46;16.40;99.90
52979;DHT22;63430;53.186;6.598;2023-08-01T00:26:53;16.40;99.90
52979;DHT22;63430;53.186;6.598;2023-08-01T00:29:00;16.40;99.90
52979;DHT22;63430;53.186;6.598;2023-08-01T00:31:04;16.40;99.90
52979;DHT22;63430;53.186;6.598;2023-08-01T00:33:10;16.30;99.90
52979;DHT22;63430;53.186;6.598;2023-08-01T00:35:12;16.30;99.90
52979;DHT22;63430;53.186;6.598;2023-08-01T00:37:15;16.30;99.90
52979;DHT22;63430;53.186;6.598;2023-08-01T00:39:17;16.30;99.90
52979;DHT22;63430;53.186;6.598;2023-08-01T00:41:20;16.30;99.90
52979;DHT22;63430;53.186;6.598;2023-08-01T00:43:22;16.30;99.90
52979;DHT22;63430;53.186;6.598;2023-08-01T00:45:29;16.30;99.90
52979;DHT22;63430;53.186;6.598;2023-08-01T00:47:32;16.20;99.90
52979;DHT22;63430;53.186;6.598;2023-08-01T00:49:35;16.20;99.90
52979;DHT22;63430;53.186;6.598;2023-08-01T00:51:38;16.20;99.90
52979;DHT22;63430;53.186;6.598;2023-08-01T00:53:40;16.20;99.90
52979;DHT22;63430;53.186;6.598;2023-08-01T00:55:43;16.20;99.90
52979;DHT22;63430;53.186;6.598;2023-08-01T00:57:47;16.20;99.90
52979;DHT22;63430;53.186;6.598;2023-08-01T00:59:49;16.20;99.90
52979;DHT22;63430;53.186;6.598;2023-08-01T01:01:55;16.20;99.90
52979;DHT22;63430;53.186;6.598;2023-08-01T01:03:58;16.10;99.90
52979;DHT22;63430;53.186;6.598;2023-08-01T01:06:05;16.10;99.90
52979;DHT22;63430;53.186;6.598;2023-08-01T01:08:08;16.10;99.90
52979;DHT22;63430;53.186;6.598;2023-08-01T01:10:11;16.10;99.90
52979;DHT22;63430;53.186;6.598;2023-08-01T01:12:14;16.10;99.90
52979;DHT22;63430;53.186;6.598;2023-08-01T01:14:16;16.00;99.90
52979;DHT22;63430;53.186;6.598;2023-08-01T01:16:20;16.00;99.90
52979;DHT22;63430;53.186;6.598;2023-08-01T01:18:25;16.00;99.90
52979;DHT22;63430;53.186;6.598;2023-08-01T01:20:34;16.00;99.90
52979;DHT22;63430;53.186;6.598;2023-08-01T01:22:38;15.90;99.90
52979;DHT22;63430;53.186;6.598;2023-08-01T01:24:44;15.90;99.90
52979;DHT22;63430;53.186;6.598;2023-08-01T01:26:48;15.90;99.90
52979;DHT22;63430;53.186;6.598;2023-08-01T01:28:52;15.90;99.90
52979;DHT22;63430;53.186;6.598;2023-08-01T01:30:55;15.80;99.90
52979;DHT22;63430;53.186;6.598;2023-08-01T01:32:58;15.80;99.90
52979;DHT22;63430;53.186;6.598;2023-08-01T01:35:03;15.70;99.90
52979;DHT22;63430;53.186;6.598;2023-08-01T01:37:08;15.70;99.90
52979;DHT22;63430;53.186;6.598;2023-08-01T01:39:11;15.70;99.90
52979;DHT22;63430;53.186;6.598;2023-08-01T01:41:13;15.70;99.90
52979;DHT22;63430;53.186;6.598;2023-08-01T01:43:16;15.70;99.90
52979;DHT22;63430;53.186;6.598;2023-08-01T01:45:18;15.60;99.90
52979;DHT22;63430;53.186;6.598;2023-08-01T01:47:21;15.60;99.90
52979;DHT22;63430;53.186;6.598;2023-08-01T01:49:24;15.60;99.90
52979;DHT22;63430;53.186;6.598;2023-08-01T01:51:28;15.60;99.90
52979;DHT22;63430;53.186;6.598;2023-08-01T01:53:34;15.60;99.90
52979;DHT22;63430;53.186;6.598;2023-08-01T01:55:36;15.60;99.90
52979;DHT22;63430;53.186;6.598;2023-08-01T01:57:39;15.60;99.90
52979;DHT22;63430;53.186;6.598;2023-08-01T01:59:43;15.50;99.90
52979;DHT22;63430;53.186;6.598;2023-08-01T02:01:45;15.50;99.90
52979;DHT22;63430;53.186;6.598;2023-08-01T02:03:48;15.50;99.90
52979;DHT22;63430;53.186;6.598;2023-08-01T02:05:50;15.50;99.90
52979;DHT22;63430;53.186;6.598;2023-08-01T02:07:54;15.40;99.90
52979;DHT22;63430;53.186;6.598;2023-08-01T02:09:59;15.40;99.90
52979;DHT22;63430;53.186;6.598;2023-08-01T02:12:05;15.40;99.90
52979;DHT22;63430;53.186;6.598;2023-08-01T02:14:10;15.40;99.90
52979;DHT22;63430;53.186;6.598;2023-08-01T02:16:13;15.40;99.90
52979;DHT22;63430;53.186;6.598;2023-08-01T02:18:15;15.40;99.90
52979;DHT22;63430;53.186;6.598;2023-08-01T02:20:18;15.30;99.90
52979;DHT22;63430;53.186;6.598;2023-08-01T02:22:20;15.40;99.90
52979;DHT22;63430;53.186;6.598;2023-08-01T02:24:23;15.40;99.90
52979;DHT22;63430;53.186;6.598;2023-08-01T02:26:28;15.30;99.90
52979;DHT22;63430;53.186;6.598;2023-08-01T02:28:31;15.30;99.90
52979;DHT22;63430;53.186;6.598;2023-08-01T02:30:35;15.30;99.90
52979;DHT22;63430;53.186;6.598;2023-08-01T02:32:38;15.30;99.90
52979;DHT22;63430;53.186;6.598;2023-08-01T02:34:41;15.30;99.90
52979;DHT22;63430;53.186;6.598;2023-08-01T02:36:43;15.30;99.90
52979;DHT22;63430;53.186;6.598;2023-08-01T02:38:46;15.30;99.90
52979;DHT22;63430;53.186;6.598;2023-08-01T02:40:49;15.30;99.90
52979;DHT22;63430;53.186;6.598;2023-08-01T02:42:54;15.30;99.90
52979;DHT22;63430;53.186;6.598;2023-08-01T02:44:57;15.20;99.90
52979;DHT22;63430;53.186;6.598;2023-08-01T02:46:59;15.20;99.90
52979;DHT22;63430;53.186;6.598;2023-08-01T02:49:02;15.20;99.90
52979;DHT22;63430;53.186;6.598;2023-08-01T02:51:05;15.20;99.90
52979;DHT22;63430;53.186;6.598;2023-08-01T02:53:11;15.20;99.90
52979;DHT22;63430;53.186;6.598;2023-08-01T02:55:14;15.20;99.90
52979;DHT22;63430;53.186;6.598;2023-08-01T02:57:16;15.20;99.90
52979;DHT22;63430;53.186;6.598;2023-08-01T02:59:22;15.20;99.90
52979;DHT22;63430;53.186;6.598;2023-08-01T03:01:24;15.20;99.90
52979;DHT22;63430;53.186;6.598;2023-08-01T03:03:27;15.20;99.90
52979;DHT22;63430;53.186;6.598;2023-08-01T03:05:30;15.10;99.90
52979;DHT22;63430;53.186;6.598;2023-08-01T03:07:32;15.10;99.90
52979;DHT22;63430;53.186;6.598;2023-08-01T03:09:35;15.10;99.90
52979;DHT22;63430;53.186;6.598;2023-08-01T03:11:37;15.20;99.90
52979;DHT22;63430;53.186;6.598;2023-08-01T03:13:40;15.10;99.90
52979;DHT22;63430;53.186;6.598;2023-08-01T03:15:46;15.20;99.90
52979;DHT22;63430;53.186;6.598;2023-08-01T03:17:48;15.20;99.90
52979;DHT22;63430;53.186;6.598;2023-08-01T03:19:51;15.20;99.90
52979;DHT22;63430;53.186;6.598;2023-08-01T03:21:54;15.20;99.90
52979;DHT22;63430;53.186;6.598;2023-08-01T03:23:58;15.20;99.90
52979;DHT22;63430;53.186;6.598;2023-08-01T03:26:01;15.30;99.90
52979;DHT22;63430;53.186;6.598;2023-08-01T03:28:04;15.30;99.90
52979;DHT22;63430;53.186;6.598;2023-08-01T03:30:07;15.30;99.90
52979;DHT22;63430;53.186;6.598;2023-08-01T03:32:14;15.30;99.90
52979;DHT22;63430;53.186;6.598;2023-08-01T03:34:17;15.40;99.90
52979;DHT22;63430;53.186;6.598;2023-08-01T03:36:19;15.30;99.90
52979;DHT22;63430;53.186;6.598;2023-08-01T03:38:22;15.40;99.90
52979;DHT22;63430;53.186;6.598;2023-08-01T03:40:25;15.30;99.90
52979;DHT22;63430;53.186;6.598;2023-08-01T03:42:28;15.40;99.90
52979;DHT22;63430;53.186;6.598;2023-08-01T03:44:30;15.30;99.90
52979;DHT22;63430;53.186;6.598;2023-08-01T03:46:34;15.40;99.90
52979;DHT22;63430;53.186;6.598;2023-08-01T03:48:39;15.40;99.90
52979;DHT22;63430;53.186;6.598;2023-08-01T03:50:42;15.40;99.90
52979;DHT22;63430;53.186;6.598;2023-08-01T03:52:44;15.40;99.90
52979;DHT22;63430;53.186;6.598;2023-08-01T03:54:48;15.30;99.90
52979;DHT22;63430;53.186;6.598;2023-08-01T03:56:51;15.30;99.90
52979;DHT22;63430;53.186;6.598;2023-08-01T03:58:53;15.40;99.90
52979;DHT22;63430;53.186;6.598;2023-08-01T04:00:56;15.40;99.90
52979;DHT22;63430;53.186;6.598;2023-08-01T04:02:59;15.30;99.90
52979;DHT22;63430;53.186;6.598;2023-08-01T04:05:04;15.40;99.90
52979;DHT22;63430;53.186;6.598;2023-08-01T04:07:07;15.30;99.90
52979;DHT22;63430;53.186;6.598;2023-08-01T04:09:10;15.30;99.90
52979;DHT22;63430;53.186;6.598;2023-08-01T04:11:13;15.30;99.90
52979;DHT22;63430;53.186;6.598;2023-08-01T04:13:15;15.30;99.90
52979;DHT22;63430;53.186;6.598;2023-08-01T04:15:18;15.30;99.90
52979;DHT22;63430;53.186;6.598;2023-08-01T04:17:21;15.30;99.90
52979;DHT22;63430;53.186;6.598;2023-08-01T04:19:23;15.40;99.90
52979;DHT22;63430;53.186;6.598;2023-08-01T04:21:30;15.30;99.90
52979;DHT22;63430;53.186;6.598;2023-08-01T04:23:32;15.30;99.90
52979;DHT22;63430;53.186;6.598;2023-08-01T04:25:35;15.30;99.90
52979;DHT22;63430;53.186;6.598;2023-08-01T04:27:37;15.30;99.90
52979;DHT22;63430;53.186;6.598;2023-08-01T04:29:40;15.30;99.90
52979;DHT22;63430;53.186;6.598;2023-08-01T04:31:42;15.30;99.90
52979;DHT22;63430;53.186;6.598;2023-08-01T04:33:46;15.30;99.90
52979;DHT22;63430;53.186;6.598;2023-08-01T04:35:48;15.20;99.90
52979;DHT22;63430;53.186;6.598;2023-08-01T04:37:54;15.30;99.90
52979;DHT22;63430;53.186;6.598;2023-08-01T04:39:56;15.20;99.90
52979;DHT22;63430;53.186;6.598;2023-08-01T04:41:59;15.00;99.90
52979;DHT22;63430;53.186;6.598;2023-08-01T04:44:01;15.30;99.90
52979;DHT22;63430;53.186;6.598;2023-08-01T04:46:04;15.30;99.90
52979;DHT22;63430;53.186;6.598;2023-08-01T04:48:09;15.30;99.90
52979;DHT22;63430;53.186;6.598;2023-08-01T04:50:12;15.20;99.90
52979;DHT22;63430;53.186;6.598;2023-08-01T04:52:15;15.20;99.90
52979;DHT22;63430;53.186;6.598;2023-08-01T04:54:20;15.30;99.90
52979;DHT22;63430;53.186;6.598;2023-08-01T04:56:22;15.20;99.90
52979;DHT22;63430;53.186;6.598;2023-08-01T04:58:25;15.30;99.90
52979;DHT22;63430;53.186;6.598;2023-08-01T05:00:28;15.30;99.90
52979;DHT22;63430;53.186;6.598;2023-08-01T05:02:30;15.30;99.90
52979;DHT22;63430;53.186;6.598;2023-08-01T05:04:33;15.30;99.90
52979;DHT22;63430;53.186;6.598;2023-08-01T05:06:35;15.30;99.90
52979;DHT22;63430;53.186;6.598;2023-08-01T05:08:38;15.30;99.90
52979;DHT22;63430;53.186;6.598;2023-08-01T05:10:43;15.30;99.90
52979;DHT22;63430;53.186;6.598;2023-08-01T05:12:46;15.40;99.90
52979;DHT22;63430;53.186;6.598;2023-08-01T05:14:48;15.40;99.90
52979;DHT22;63430;53.186;6.598;2023-08-01T05:16:51;15.50;99.90
52979;DHT22;63430;53.186;6.598;2023-08-01T05:18:53;15.60;99.90
52979;DHT22;63430;53.186;6.598;2023-08-01T05:20:56;15.60;99.90
52979;DHT22;63430;53.186;6.598;2023-08-01T05:22:58;15.70;99.90
52979;DHT22;63430;53.186;6.598;2023-08-01T05:25:01;15.70;99.90
52979;DHT22;63430;53.186;6.598;2023-08-01T05:27:07;15.70;99.90
52979;DHT22;63430;53.186;6.598;2023-08-01T05:29:10;15.70;99.90
52979;DHT22;63430;53.186;6.598;2023-08-01T05:31:12;15.70;99.90
52979;DHT22;63430;53.186;6.598;2023-08-01T05:33:15;15.70;99.90
52979;DHT22;63430;53.186;6.598;2023-08-01T05:35:18;15.60;99.90
52979;DHT22;63430;53.186;6.598;2023-08-01T05:37:21;15.60;99.90
52979;DHT22;63430;53.186;6.598;2023-08-01T05:39:24;15.60;99.90
52979;DHT22;63430;53.186;6.598;2023-08-01T05:41:26;15.50;99.90
52979;DHT22;63430;53.186;6.598;2023-08-01T05:43:31;15.50;99.90
52979;DHT22;63430;53.186;6.598;2023-08-01T05:45:34;15.50;99.90
52979;DHT22;63430;53.186;6.598;2023-08-01T05:47:36;15.40;99.90
52979;DHT22;63430;53.186;6.598;2023-08-01T05:49:39;15.40;99.90
52979;DHT22;63430;53.186;6.598;2023-08-01T05:51:43;15.30;99.90
52979;DHT22;63430;53.186;6.598;2023-08-01T05:53:46;15.30;99.90
52979;DHT22;63430;53.186;6.598;2023-08-01T05:55:48;15.40;99.90
52979;DHT22;63430;53.186;6.598;2023-08-01T05:57:51;15.40;99.90
52979;DHT22;63430;53.186;6.598;2023-08-01T05:59:57;15.40;99.90
52979;DHT22;63430;53.186;6.598;2023-08-01T06:02:00;15.40;99.90
52979;DHT22;63430;53.186;6.598;2023-08-01T06:04:03;15.50;99.90
52979;DHT22;63430;53.186;6.598;2023-08-01T06:06:06;15.40;99.90
52979;DHT22;63430;53.186;6.598;2023-08-01T06:08:09;15.40;99.90
52979;DHT22;63430;53.186;6.598;2023-08-01T06:10:11;15.50;99.90
52979;DHT22;63430;53.186;6.598;2023-08-01T06:12:14;15.50;99.90
52979;DHT22;63430;53.186;6.598;2023-08-01T06:14:17;15.50;99.90
52979;DHT22;63430;53.186;6.598;2023-08-01T06:16:22;15.60;99.90
52979;DHT22;63430;53.186;6.598;2023-08-01T06:18:28;15.60;99.90
52979;DHT22;63430;53.186;6.598;2023-08-01T06:20:30;15.60;99.90
52979;DHT22;63430;53.186;6.598;2023-08-01T06:22:33;15.60;99.90
52979;DHT22;63430;53.186;6.598;2023-08-01T06:24:35;15.60;99.90
52979;DHT22;63430;53.186;6.598;2023-08-01T06:26:38;15.60;99.90
52979;DHT22;63430;53.186;6.598;2023-08-01T06:28:41;15.60;99.90
52979;DHT22;63430;53.186;6.598;2023-08-01T06:30:44;15.60;99.90
52979;DHT22;63430;53.186;6.598;2023-08-01T06:32:49;15.60;99.90
52979;DHT22;63430;53.186;6.598;2023-08-01T06:34:52;15.60;99.90
52979;DHT22;63430;53.186;6.598;2023-08-01T06:36:55;15.60;99.90
52979;DHT22;63430;53.186;6.598;2023-08-01T06:38:58;15.60;99.90
52979;DHT22;63430;53.186;6.598;2023-08-01T06:41:00;15.50;99.90
52979;DHT22;63430;53.186;6.598;2023-08-01T06:43:03;15.50;99.90
52979;DHT22;63430;53.186;6.598;2023-08-01T06:45:06;15.60;99.90
52979;DHT22;63430;53.186;6.598;2023-08-01T06:47:09;15.60;99.90
52979;DHT22;63430;53.186;6.598;2023-08-01T06:49:14;15.70;99.90
52979;DHT22;63430;53.186;6.598;2023-08-01T06:51:16;15.50;99.90
52979;DHT22;63430;53.186;6.598;2023-08-01T06:53:19;15.50;99.90
52979;DHT22;63430;53.186;6.598;2023-08-01T06:55:21;15.70;99.90
52979;DHT22;63430;53.186;6.598;2023-08-01T06:57:24;15.70;99.90
52979;DHT22;63430;53.186;6.598;2023-08-01T06:59:26;15.70;99.90
52979;DHT22;63430;53.186;6.598;2023-08-01T07:01:29;15.80;99.90
52979;DHT22;63430;53.186;6.598;2023-08-01T07:03:33;15.90;99.90
52979;DHT22;63430;53.186;6.598;2023-08-01T07:05:38;15.90;99.90
52979;DHT22;63430;53.186;6.598;2023-08-01T07:07:41;15.90;99.90
52979;DHT22;63430;53.186;6.598;2023-08-01T07:09:43;15.90;99.90
52979;DHT22;63430;53.186;6.598;2023-08-01T07:11:46;16.00;99.90
52979;DHT22;63430;53.186;6.598;2023-08-01T07:13:48;16.00;99.90
52979;DHT22;63430;53.186;6.598;2023-08-01T07:15:51;16.10;99.90
52979;DHT22;63430;53.186;6.598;2023-08-01T07:17:53;16.10;99.90
52979;DHT22;63430;53.186;6.598;2023-08-01T07:19:56;16.10;99.90
52979;DHT22;63430;53.186;6.598;2023-08-01T07:22:01;16.10;99.90
52979;DHT22;63430;53.186;6.598;2023-08-01T07:24:04;16.10;99.90
52979;DHT22;63430;53.186;6.598;2023-08-01T07:26:07;16.10;99.90
52979;DHT22;63430;53.186;6.598;2023-08-01T07:28:10;16.10;99.90
52979;DHT22;63430;53.186;6.598;2023-08-01T07:30:13;16.10;99.90
52979;DHT22;63430;53.186;6.598;2023-08-01T07:32:15;16.10;99.90
52979;DHT22;63430;53.186;6.598;2023-08-01T07:34:19;16.10;99.90
52979;DHT22;63430;53.186;6.598;2023-08-01T07:36:25;16.10;99.90
52979;DHT22;63430;53.186;6.598;2023-08-01T07:38:31;16.10;99.90
52979;DHT22;63430;53.186;6.598;2023-08-01T07:40:36;16.10;99.90
52979;DHT22;63430;53.186;6.598;2023-08-01T07:42:39;16.10;99.90
52979;DHT22;63430;53.186;6.598;2023-08-01T07:44:42;16.10;99.90
52979;DHT22;63430;53.186;6.598;2023-08-01T07:46:44;16.10;99.90
52979;DHT22;63430;53.186;6.598;2023-08-01T07:48:47;16.00;99.90
52979;DHT22;63430;53.186;6.598;2023-08-01T07:50:51;16.10;99.90
52979;DHT22;63430;53.186;6.598;2023-08-01T07:52:54;16.00;99.90
52979;DHT22;63430;53.186;6.598;2023-08-01T07:54:59;16.00;99.90
52979;DHT22;63430;53.186;6.598;2023-08-01T07:57:02;16.00;99.90
52979;DHT22;63430;53.186;6.598;2023-08-01T07:59:05;15.90;99.90
52979;DHT22;63430;53.186;6.598;2023-08-01T08:01:08;15.90;99.90
52979;DHT22;63430;53.186;6.598;2023-08-01T08:03:11;15.90;99.90
52979;DHT22;63430;53.186;6.598;2023-08-01T08:05:13;15.90;99.90
52979;DHT22;63430;53.186;6.598;2023-08-01T08:07:16;15.90;99.90
52979;DHT22;63430;53.186;6.598;2023-08-01T08:09:18;15.90;99.90
52979;DHT22;63430;53.186;6.598;2023-08-01T08:11:23;16.00;99.90
52979;DHT22;63430;53.186;6.598;2023-08-01T08:13:26;16.10;99.90
52979;DHT22;63430;53.186;6.598;2023-08-01T08:15:28;16.30;99.90
52979;DHT22;63430;53.186;6.598;2023-08-01T08:17:35;16.40;99.90
52979;DHT22;63430;53.186;6.598;2023-08-01T08:19:38;16.40;99.90
52979;DHT22;63430;53.186;6.598;2023-08-01T08:21:41;16.40;99.90
52979;DHT22;63430;53.186;6.598;2023-08-01T08:23:43;16.40;99.90
52979;DHT22;63430;53.186;6.598;2023-08-01T08:25:46;16.40;99.90
52979;DHT22;63430;53.186;6.598;2023-08-01T08:27:55;16.30;99.90
52979;DHT22;63430;53.186;6.598;2023-08-01T08:29:58;16.30;99.90
52979;DHT22;63430;53.186;6.598;2023-08-01T08:32:00;16.30;99.90
52979;DHT22;63430;53.186;6.598;2023-08-01T08:34:03;16.30;99.90
52979;DHT22;63430;53.186;6.598;2023-08-01T08:36:05;16.20;99.90
52979;DHT22;63430;53.186;6.598;2023-08-01T08:38:08;16.20;99.90
52979;DHT22;63430;53.186;6.598;2023-08-01T08:40:12;16.10;99.90
52979;DHT22;63430;53.186;6.598;2023-08-01T08:42:18;16.10;99.90
52979;DHT22;63430;53.186;6.598;2023-08-01T08:44:25;16.00;99.90
52979;DHT22;63430;53.186;6.598;2023-08-01T08:46:35;16.00;99.90
52979;DHT22;63430;53.186;6.598;2023-08-01T08:48:42;16.00;99.90
52979;DHT22;63430;53.186;6.598;2023-08-01T08:50:46;16.00;99.90
52979;DHT22;63430;53.186;6.598;2023-08-01T08:52:50;16.40;99.90
52979;DHT22;63430;53.186;6.598;2023-08-01T08:54:53;16.00;99.90
52979;DHT22;63430;53.186;6.598;2023-08-01T08:56:56;16.00;99.90
52979;DHT22;63430;53.186;6.598;2023-08-01T08:58:59;15.80;99.90
52979;DHT22;63430;53.186;6.598;2023-08-01T09:01:06;16.00;99.90
52979;DHT22;63430;53.186;6.598;2023-08-01T09:03:10;16.00;99.90
52979;DHT22;63430;53.186;6.598;2023-08-01T09:05:13;16.30;99.90
52979;DHT22;63430;53.186;6.598;2023-08-01T09:07:17;16.50;99.90
52979;DHT22;63430;53.186;6.598;2023-08-01T09:09:22;16.80;99.90
52979;DHT22;63430;53.186;6.598;2023-08-01T09:11:28;17.00;99.90
52979;DHT22;63430;53.186;6.598;2023-08-01T09:13:31;17.10;99.90
52979;DHT22;63430;53.186;6.598;2023-08-01T09:15:34;17.20;99.90
52979;DHT22;63430;53.186;6.598;2023-08-01T09:17:50;17.20;99.90
52979;DHT22;63430;53.186;6.598;2023-08-01T09:19:56;17.10;99.90
52979;DHT22;63430;53.186;6.598;2023-08-01T09:22:10;16.90;99.90
52979;DHT22;63430;53.186;6.598;2023-08-01T09:24:14;16.90;99.90
52979;DHT22;63430;53.186;6.598;2023-08-01T09:26:18;16.80;99.90
52979;DHT22;63430;53.186;6.598;2023-08-01T09:28:22;16.80;99.90
52979;DHT22;63430;53.186;6.598;2023-08-01T09:30:46;16.90;99.90
52979;DHT22;63430;53.186;6.598;2023-08-01T09:32:54;16.80;99.90
52979;DHT22;63430;53.186;6.598;2023-08-01T09:34:58;16.80;99.90
52979;DHT22;63430;53.186;6.598;2023-08-01T09:37:02;16.90;99.90
52979;DHT22;63430;53.186;6.598;2023-08-01T09:39:04;16.90;99.90
52979;DHT22;63430;53.186;6.598;2023-08-01T09:41:17;17.00;99.90
52979;DHT22;63430;53.186;6.598;2023-08-01T09:43:20;17.20;99.90
52979;DHT22;63430;53.186;6.598;2023-08-01T09:45:22;17.30;99.90
52979;DHT22;63430;53.186;6.598;2023-08-01T09:47:36;17.30;99.90
52979;DHT22;63430;53.186;6.598;2023-08-01T09:49:47;17.30;99.90
52979;DHT22;63430;53.186;6.598;2023-08-01T09:51:51;17.20;99.90
52979;DHT22;63430;53.186;6.598;2023-08-01T09:53:56;17.20;99.90
52979;DHT22;63430;53.186;6.598;2023-08-01T09:56:00;17.10;99.90
52979;DHT22;63430;53.186;6.598;2023-08-01T09:58:07;17.10;99.90
52979;DHT22;63430;53.186;6.598;2023-08-01T10:00:13;17.30;99.90
52979;DHT22;63430;53.186;6.598;2023-08-01T10:02:20;17.50;99.90
52979;DHT22;63430;53.186;6.598;2023-08-01T10:04:28;17.60;99.90
52979;DHT22;63430;53.186;6.598;2023-08-01T10:06:37;17.70;99.90
52979;DHT22;63430;53.186;6.598;2023-08-01T10:08:41;17.60;99.90
52979;DHT22;63430;53.186;6.598;2023-08-01T10:10:44;17.70;99.90
52979;DHT22;63430;53.186;6.598;2023-08-01T10:12:46;17.60;99.90
52979;DHT22;63430;53.186;6.598;2023-08-01T10:14:53;17.60;99.90
52979;DHT22;63430;53.186;6.598;2023-08-01T10:16:57;17.50;99.90
52979;DHT22;63430;53.186;6.598;2023-08-01T10:19:00;17.40;99.90
52979;DHT22;63430;53.186;6.598;2023-08-01T10:21:04;17.30;99.90
52979;DHT22;63430;53.186;6.598;2023-08-01T10:23:10;17.30;99.90
52979;DHT22;63430;53.186;6.598;2023-08-01T10:25:13;17.30;99.90
52979;DHT22;63430;53.186;6.598;2023-08-01T10:27:20;17.30;99.90
52979;DHT22;63430;53.186;6.598;2023-08-01T10:29:34;17.40;99.90
52979;DHT22;63430;53.186;6.598;2023-08-01T10:31:38;17.50;99.90
52979;DHT22;63430;53.186;6.598;2023-08-01T10:33:42;17.40;99.90
52979;DHT22;63430;53.186;6.598;2023-08-01T10:35:45;17.30;99.90
52979;DHT22;63430;53.186;6.598;2023-08-01T10:37:48;17.20;99.90
52979;DHT22;63430;53.186;6.598;2023-08-01T10:39:59;17.20;99.90
52979;DHT22;63430;53.186;6.598;2023-08-01T10:42:05;17.20;99.90
52979;DHT22;63430;53.186;6.598;2023-08-01T10:44:10;17.20;99.90
52979;DHT22;63430;53.186;6.598;2023-08-01T10:46:13;17.30;99.90
52979;DHT22;63430;53.186;6.598;2023-08-01T10:48:15;17.40;99.90
52979;DHT22;63430;53.186;6.598;2023-08-01T10:50:18;17.60;99.90
52979;DHT22;63430;53.186;6.598;2023-08-01T10:52:22;17.90;99.90
52979;DHT22;63430;53.186;6.598;2023-08-01T10:54:26;18.20;99.90
52979;DHT22;63430;53.186;6.598;2023-08-01T10:56:31;18.50;99.90
52979;DHT22;63430;53.186;6.598;2023-08-01T10:58:34;18.80;99.90
52979;DHT22;63430;53.186;6.598;2023-08-01T11:00:37;19.00;99.90
52979;DHT22;63430;53.186;6.598;2023-08-01T11:02:39;19.10;99.90
52979;DHT22;63430;53.186;6.598;2023-08-01T11:04:42;19.10;99.90
52979;DHT22;63430;53.186;6.598;2023-08-01T11:06:49;19.00;99.90
52979;DHT22;63430;53.186;6.598;2023-08-01T11:08:52;19.00;99.90
52979;DHT22;63430;53.186;6.598;2023-08-01T11:10:55;19.10;99.90
52979;DHT22;63430;53.186;6.598;2023-08-01T11:13:00;19.40;99.90
52979;DHT22;63430;53.186;6.598;2023-08-01T11:15:03;19.60;99.90
52979;DHT22;63430;53.186;6.598;2023-08-01T11:17:06;19.70;99.90
52979;DHT22;63430;53.186;6.598;2023-08-01T11:19:18;19.80;99.90
52979;DHT22;63430;53.186;6.598;2023-08-01T11:21:25;19.80;99.90
52979;DHT22;63430;53.186;6.598;2023-08-01T11:23:30;19.90;99.90
52979;DHT22;63430;53.186;6.598;2023-08-01T11:25:34;20.00;99.90
52979;DHT22;63430;53.186;6.598;2023-08-01T11:27:36;20.00;99.90
52979;DHT22;63430;53.186;6.598;2023-08-01T11:29:42;19.90;99.90
52979;DHT22;63430;53.186;6.598;2023-08-01T11:31:53;19.80;99.90
52979;DHT22;63430;53.186;6.598;2023-08-01T11:33:56;19.70;99.90
52979;DHT22;63430;53.186;6.598;2023-08-01T11:35:59;19.60;99.90
52979;DHT22;63430;53.186;6.598;2023-08-01T11:38:02;19.50;99.90
52979;DHT22;63430;53.186;6.598;2023-08-01T11:40:08;19.40;99.90
52979;DHT22;63430;53.186;6.598;2023-08-01T11:42:17;19.20;99.90
52979;DHT22;63430;53.186;6.598;2023-08-01T11:44:23;19.20;99.90
52979;DHT22;63430;53.186;6.598;2023-08-01T11:46:33;19.20;99.90
52979;DHT22;63430;53.186;6.598;2023-08-01T11:48:36;19.30;99.90
52979;DHT22;63430;53.186;6.598;2023-08-01T11:50:38;19.30;99.90
52979;DHT22;63430;53.186;6.598;2023-08-01T11:52:45;19.30;99.90
52979;DHT22;63430;53.186;6.598;2023-08-01T11:54:48;19.30;99.90
52979;DHT22;63430;53.186;6.598;2023-08-01T11:57:00;19.20;99.90
52979;DHT22;63430;53.186;6.598;2023-08-01T11:59:08;19.20;99.90
52979;DHT22;63430;53.186;6.598;2023-08-01T12:01:12;19.20;99.90
52979;DHT22;63430;53.186;6.598;2023-08-01T12:03:18;19.30;99.90
52979;DHT22;63430;53.186;6.598;2023-08-01T12:05:24;19.30;99.90
52979;DHT22;63430;53.186;6.598;2023-08-01T12:07:26;19.50;99.90
52979;DHT22;63430;53.186;6.598;2023-08-01T12:09:32;19.60;99.90
52979;DHT22;63430;53.186;6.598;2023-08-01T12:11:35;19.60;99.90
52979;DHT22;63430;53.186;6.598;2023-08-01T12:13:38;19.60;99.90
52979;DHT22;63430;53.186;6.598;2023-08-01T12:15:41;19.60;99.90
52979;DHT22;63430;53.186;6.598;2023-08-01T12:17:43;19.60;99.90
52979;DHT22;63430;53.186;6.598;2023-08-01T12:19:48;19.60;99.90
52979;DHT22;63430;53.186;6.598;2023-08-01T12:21:51;19.50;99.90
52979;DHT22;63430;53.186;6.598;2023-08-01T12:23:53;19.40;99.90
52979;DHT22;63430;53.186;6.598;2023-08-01T12:25:56;19.20;99.90
52979;DHT22;63430;53.186;6.598;2023-08-01T12:27:58;19.00;99.90
52979;DHT22;63430;53.186;6.598;2023-08-01T12:30:01;18.90;99.90
52979;DHT22;63430;53.186;6.598;2023-08-01T12:32:04;18.90;99.90
52979;DHT22;63430;53.186;6.598;2023-08-01T12:34:09;19.00;99.90
52979;DHT22;63430;53.186;6.598;2023-08-01T12:36:15;19.20;99.90
52979;DHT22;63430;53.186;6.598;2023-08-01T12:38:17;19.40;99.90
52979;DHT22;63430;53.186;6.598;2023-08-01T12:40:20;19.70;99.90
52979;DHT22;63430;53.186;6.598;2023-08-01T12:42:23;19.90;99.90
52979;DHT22;63430;53.186;6.598;2023-08-01T12:44:28;20.10;99.90
52979;DHT22;63430;53.186;6.598;2023-08-01T12:46:31;20.10;99.90
52979;DHT22;63430;53.186;6.598;2023-08-01T12:48:34;20.00;99.90
52979;DHT22;63430;53.186;6.598;2023-08-01T12:50:37;19.80;99.90
52979;DHT22;63430;53.186;6.598;2023-08-01T12:52:42;19.70;99.90
52979;DHT22;63430;53.186;6.598;2023-08-01T12:54:46;19.60;99.90
52979;DHT22;63430;53.186;6.598;2023-08-01T12:56:48;19.60;99.90
52979;DHT22;63430;53.186;6.598;2023-08-01T12:58:51;19.70;99.90
52979;DHT22;63430;53.186;6.598;2023-08-01T13:00:54;19.70;99.90